sensor_id;sensor_type;location;lat;lon;timestamp;P1;durP1;ratioP1;P2;durP2;ratioP2
21046;SDS011;10682;50.874;3.656;2023-05-10T00:01:01;22.13;;;10.97;;
21046;SDS011;10682;50.874;3.656;2023-05-10T00:03:28;24.50;;;11.10;;
21046;SDS011;10682;50.874;3.656;2023-05-10T00:05:56;20.87;;;10.90;;
21046;SDS011;10682;50.874;3.656;2023-05-10T00:08:23;27.07;;;12.40;;
21046;SDS011;10682;50.874;3.656;2023-05-10T00:10:50;22.97;;;11.50;;
21046;SDS011;10682;50.874;3.656;2023-05-10T00:13:17;22.53;;;12.33;;
21046;SDS011;10682;50.874;3.656;2023-05-10T00:15:44;28.60;;;13.20;;
21046;SDS011;10682;50.874;3.656;2023-05-10T00:18:11;27.17;;;13.00;;
21046;SDS011;10682;50.874;3.656;2023-05-10T00:20:38;25.73;;;13.23;;
21046;SDS011;10682;50.874;3.656;2023-05-10T00:23:05;31.90;;;14.67;;
21046;SDS011;10682;50.874;3.656;2023-05-10T00:25:32;29.30;;;14.10;;
21046;SDS011;10682;50.874;3.656;2023-05-10T00:27:59;26.23;;;13.77;;
21046;SDS011;10682;50.874;3.656;2023-05-10T00:30:27;26.73;;;14.17;;
21046;SDS011;10682;50.874;3.656;2023-05-10T00:32:54;26.33;;;13.70;;
21046;SDS011;10682;50.874;3.656;2023-05-10T00:35:21;25.50;;;13.43;;
21046;SDS011;10682;50.874;3.656;2023-05-10T00:37:48;30.43;;;14.03;;
21046;SDS011;10682;50.874;3.656;2023-05-10T00:40:15;28.50;;;13.67;;
21046;SDS011;10682;50.874;3.656;2023-05-10T00:42:43;32.97;;;15.33;;
21046;SDS011;10682;50.874;3.656;2023-05-10T00:45:10;33.60;;;15.03;;
21046;SDS011;10682;50.874;3.656;2023-05-10T00:47:37;29.13;;;14.33;;
21046;SDS011;10682;50.874;3.656;2023-05-10T00:50:05;32.30;;;15.27;;
21046;SDS011;10682;50.874;3.656;2023-05-10T00:52:32;35.30;;;15.93;;
21046;SDS011;10682;50.874;3.656;2023-05-10T00:54:59;38.43;;;17.17;;
21046;SDS011;10682;50.874;3.656;2023-05-10T00:57:27;33.17;;;15.23;;
21046;SDS011;10682;50.874;3.656;2023-05-10T00:59:54;39.30;;;17.53;;
21046;SDS011;10682;50.874;3.656;2023-05-10T01:02:21;33.83;;;16.37;;
21046;SDS011;10682;50.874;3.656;2023-05-10T01:04:48;47.00;;;18.00;;
21046;SDS011;10682;50.874;3.656;2023-05-10T01:07:16;39.43;;;18.07;;
21046;SDS011;10682;50.874;3.656;2023-05-10T01:09:43;43.43;;;17.87;;
21046;SDS011;10682;50.874;3.656;2023-05-10T01:12:10;38.50;;;17.50;;
21046;SDS011;10682;50.874;3.656;2023-05-10T01:14:37;43.23;;;18.23;;
21046;SDS011;10682;50.874;3.656;2023-05-10T01:17:05;45.37;;;17.83;;
21046;SDS011;10682;50.874;3.656;2023-05-10T01:19:34;36.70;;;17.17;;
21046;SDS011;10682;50.874;3.656;2023-05-10T01:27:54;38.67;;;17.47;;
21046;SDS011;10682;50.874;3.656;2023-05-10T01:34:06;39.97;;;17.40;;
21046;SDS011;10682;50.874;3.656;2023-05-10T01:39:25;38.00;;;16.97;;
21046;SDS011;10682;50.874;3.656;2023-05-10T01:42:08;37.40;;;17.60;;
21046;SDS011;10682;50.874;3.656;2023-05-10T01:47:20;37.07;;;17.80;;
21046;SDS011;10682;50.874;3.656;2023-05-10T01:50:01;40.00;;;17.70;;
21046;SDS011;10682;50.874;3.656;2023-05-10T01:52:36;41.47;;;17.23;;
21046;SDS011;10682;50.874;3.656;2023-05-10T01:55:08;38.23;;;17.30;;
21046;SDS011;10682;50.874;3.656;2023-05-10T01:57:42;36.00;;;15.87;;
21046;SDS011;10682;50.874;3.656;2023-05-10T02:00:11;37.33;;;17.13;;
21046;SDS011;10682;50.874;3.656;2023-05-10T02:02:41;33.40;;;17.40;;
21046;SDS011;10682;50.874;3.656;2023-05-10T02:05:12;34.17;;;17.30;;
21046;SDS011;10682;50.874;3.656;2023-05-10T02:07:41;38.67;;;17.93;;
21046;SDS011;10682;50.874;3.656;2023-05-10T02:10:09;40.80;;;17.47;;
21046;SDS011;10682;50.874;3.656;2023-05-10T02:12:40;35.17;;;17.23;;
21046;SDS011;10682;50.874;3.656;2023-05-10T02:15:10;36.37;;;17.27;;
21046;SDS011;10682;50.874;3.656;2023-05-10T02:17:41;36.20;;;18.13;;
21046;SDS011;10682;50.874;3.656;2023-05-10T02:20:09;42.53;;;19.50;;
21046;SDS011;10682;50.874;3.656;2023-05-10T02:22:37;40.23;;;20.23;;
21046;SDS011;10682;50.874;3.656;2023-05-10T02:25:06;38.53;;;19.43;;
21046;SDS011;10682;50.874;3.656;2023-05-10T02:27:36;42.93;;;21.17;;
21046;SDS011;10682;50.874;3.656;2023-05-10T02:30:05;40.43;;;21.00;;
21046;SDS011;10682;50.874;3.656;2023-05-10T02:32:33;39.63;;;20.00;;
21046;SDS011;10682;50.874;3.656;2023-05-10T02:35:02;44.87;;;21.27;;
21046;SDS011;10682;50.874;3.656;2023-05-10T02:37:30;45.50;;;22.33;;
21046;SDS011;10682;50.874;3.656;2023-05-10T02:39:58;41.07;;;20.73;;
21046;SDS011;10682;50.874;3.656;2023-05-10T02:42:27;41.07;;;21.43;;
21046;SDS011;10682;50.874;3.656;2023-05-10T02:45:02;46.17;;;22.73;;
21046;SDS011;10682;50.874;3.656;2023-05-10T02:47:38;44.27;;;22.63;;
21046;SDS011;10682;50.874;3.656;2023-05-10T02:50:06;42.67;;;20.63;;
21046;SDS011;10682;50.874;3.656;2023-05-10T02:52:36;44.37;;;20.70;;
21046;SDS011;10682;50.874;3.656;2023-05-10T02:55:11;43.90;;;21.93;;
21046;SDS011;10682;50.874;3.656;2023-05-10T02:57:51;45.77;;;20.93;;
21046;SDS011;10682;50.874;3.656;2023-05-10T03:00:24;37.00;;;19.87;;
21046;SDS011;10682;50.874;3.656;2023-05-10T03:02:52;35.60;;;18.03;;
21046;SDS011;10682;50.874;3.656;2023-05-10T03:05:19;33.63;;;17.47;;
21046;SDS011;10682;50.874;3.656;2023-05-10T03:07:47;34.13;;;17.93;;
21046;SDS011;10682;50.874;3.656;2023-05-10T03:10:14;37.77;;;17.57;;
21046;SDS011;10682;50.874;3.656;2023-05-10T03:18:47;34.77;;;16.53;;
21046;SDS011;10682;50.874;3.656;2023-05-10T03:21:26;36.23;;;16.03;;
21046;SDS011;10682;50.874;3.656;2023-05-10T03:23:59;40.80;;;18.03;;
21046;SDS011;10682;50.874;3.656;2023-05-10T03:26:37;40.23;;;17.60;;
21046;SDS011;10682;50.874;3.656;2023-05-10T03:29:06;47.77;;;18.37;;
21046;SDS011;10682;50.874;3.656;2023-05-10T03:31:34;42.90;;;18.67;;
21046;SDS011;10682;50.874;3.656;2023-05-10T03:34:02;42.70;;;18.97;;
21046;SDS011;10682;50.874;3.656;2023-05-10T03:36:29;52.77;;;19.50;;
21046;SDS011;10682;50.874;3.656;2023-05-10T03:38:55;52.90;;;19.00;;
21046;SDS011;10682;50.874;3.656;2023-05-10T03:41:22;49.80;;;20.10;;
21046;SDS011;10682;50.874;3.656;2023-05-10T03:43:50;51.17;;;19.63;;
21046;SDS011;10682;50.874;3.656;2023-05-10T03:46:18;53.97;;;20.07;;
21046;SDS011;10682;50.874;3.656;2023-05-10T03:48:45;51.47;;;20.93;;
21046;SDS011;10682;50.874;3.656;2023-05-10T03:51:12;50.97;;;19.40;;
21046;SDS011;10682;50.874;3.656;2023-05-10T03:53:38;52.83;;;20.27;;
21046;SDS011;10682;50.874;3.656;2023-05-10T03:56:05;51.43;;;20.00;;
21046;SDS011;10682;50.874;3.656;2023-05-10T03:58:32;51.33;;;20.30;;
21046;SDS011;10682;50.874;3.656;2023-05-10T04:00:59;61.17;;;19.03;;
21046;SDS011;10682;50.874;3.656;2023-05-10T04:03:26;57.87;;;20.43;;
21046;SDS011;10682;50.874;3.656;2023-05-10T04:06:00;51.17;;;19.57;;
21046;SDS011;10682;50.874;3.656;2023-05-10T04:08:28;51.73;;;20.33;;
21046;SDS011;10682;50.874;3.656;2023-05-10T04:11:04;52.43;;;20.07;;
21046;SDS011;10682;50.874;3.656;2023-05-10T04:13:35;55.00;;;19.87;;
21046;SDS011;10682;50.874;3.656;2023-05-10T04:16:04;53.33;;;20.93;;
21046;SDS011;10682;50.874;3.656;2023-05-10T04:18:31;55.73;;;20.40;;
21046;SDS011;10682;50.874;3.656;2023-05-10T04:20:58;58.37;;;22.03;;
21046;SDS011;10682;50.874;3.656;2023-05-10T04:23:26;65.40;;;21.93;;
21046;SDS011;10682;50.874;3.656;2023-05-10T04:26:00;65.10;;;22.53;;
21046;SDS011;10682;50.874;3.656;2023-05-10T04:28:28;65.30;;;22.70;;
21046;SDS011;10682;50.874;3.656;2023-05-10T04:31:05;66.40;;;22.07;;
21046;SDS011;10682;50.874;3.656;2023-05-10T04:33:35;64.80;;;22.67;;
21046;SDS011;10682;50.874;3.656;2023-05-10T04:36:03;60.57;;;21.63;;
21046;SDS011;10682;50.874;3.656;2023-05-10T04:38:30;62.53;;;20.97;;
21046;SDS011;10682;50.874;3.656;2023-05-10T04:41:07;70.30;;;22.97;;
21046;SDS011;10682;50.874;3.656;2023-05-10T04:43:36;59.77;;;22.80;;
21046;SDS011;10682;50.874;3.656;2023-05-10T04:46:04;59.57;;;21.90;;
21046;SDS011;10682;50.874;3.656;2023-05-10T04:48:32;66.27;;;22.03;;
21046;SDS011;10682;50.874;3.656;2023-05-10T04:50:59;67.23;;;21.47;;
21046;SDS011;10682;50.874;3.656;2023-05-10T04:53:27;64.13;;;21.97;;
21046;SDS011;10682;50.874;3.656;2023-05-10T04:55:54;65.30;;;23.17;;
21046;SDS011;10682;50.874;3.656;2023-05-10T04:58:21;61.30;;;21.40;;
21046;SDS011;10682;50.874;3.656;2023-05-10T05:00:48;67.97;;;23.30;;
21046;SDS011;10682;50.874;3.656;2023-05-10T05:03:14;59.50;;;21.47;;
21046;SDS011;10682;50.874;3.656;2023-05-10T05:05:42;66.07;;;22.57;;
21046;SDS011;10682;50.874;3.656;2023-05-10T05:08:10;59.77;;;22.73;;
21046;SDS011;10682;50.874;3.656;2023-05-10T05:10:37;66.63;;;23.63;;
21046;SDS011;10682;50.874;3.656;2023-05-10T05:13:04;66.37;;;24.10;;
21046;SDS011;10682;50.874;3.656;2023-05-10T05:15:31;68.67;;;22.87;;
21046;SDS011;10682;50.874;3.656;2023-05-10T05:17:59;65.97;;;23.50;;
21046;SDS011;10682;50.874;3.656;2023-05-10T05:20:26;70.03;;;22.37;;
21046;SDS011;10682;50.874;3.656;2023-05-10T05:22:53;61.20;;;23.37;;
21046;SDS011;10682;50.874;3.656;2023-05-10T05:25:20;64.63;;;23.20;;
21046;SDS011;10682;50.874;3.656;2023-05-10T05:27:47;63.47;;;21.03;;
21046;SDS011;10682;50.874;3.656;2023-05-10T05:30:14;60.67;;;21.57;;
21046;SDS011;10682;50.874;3.656;2023-05-10T05:32:41;62.53;;;20.27;;
21046;SDS011;10682;50.874;3.656;2023-05-10T05:35:08;62.20;;;21.37;;
21046;SDS011;10682;50.874;3.656;2023-05-10T05:37:36;53.63;;;20.43;;
21046;SDS011;10682;50.874;3.656;2023-05-10T05:40:03;55.37;;;20.03;;
21046;SDS011;10682;50.874;3.656;2023-05-10T05:42:31;57.50;;;20.43;;
21046;SDS011;10682;50.874;3.656;2023-05-10T05:44:58;53.90;;;19.90;;
21046;SDS011;10682;50.874;3.656;2023-05-10T05:47:26;53.67;;;20.53;;
21046;SDS011;10682;50.874;3.656;2023-05-10T05:49:53;60.50;;;22.47;;
21046;SDS011;10682;50.874;3.656;2023-05-10T05:52:19;61.30;;;21.40;;
21046;SDS011;10682;50.874;3.656;2023-05-10T05:54:47;60.90;;;21.30;;
21046;SDS011;10682;50.874;3.656;2023-05-10T05:57:14;57.83;;;21.37;;
21046;SDS011;10682;50.874;3.656;2023-05-10T05:59:41;66.50;;;22.77;;
21046;SDS011;10682;50.874;3.656;2023-05-10T06:02:10;60.13;;;21.57;;
21046;SDS011;10682;50.874;3.656;2023-05-10T06:04:37;76.60;;;23.27;;
21046;SDS011;10682;50.874;3.656;2023-05-10T06:07:08;63.00;;;24.17;;
21046;SDS011;10682;50.874;3.656;2023-05-10T06:09:35;63.63;;;22.50;;
21046;SDS011;10682;50.874;3.656;2023-05-10T06:12:02;72.10;;;24.93;;
21046;SDS011;10682;50.874;3.656;2023-05-10T06:14:29;72.23;;;23.57;;
21046;SDS011;10682;50.874;3.656;2023-05-10T06:16:56;72.83;;;23.40;;
21046;SDS011;10682;50.874;3.656;2023-05-10T06:19:23;63.37;;;21.77;;
21046;SDS011;10682;50.874;3.656;2023-05-10T06:21:50;69.40;;;22.90;;
21046;SDS011;10682;50.874;3.656;2023-05-10T06:24:19;72.70;;;23.03;;
21046;SDS011;10682;50.874;3.656;2023-05-10T06:26:46;82.47;;;25.43;;
21046;SDS011;10682;50.874;3.656;2023-05-10T06:29:13;73.97;;;23.80;;
21046;SDS011;10682;50.874;3.656;2023-05-10T06:31:41;67.73;;;23.67;;
21046;SDS011;10682;50.874;3.656;2023-05-10T06:34:08;72.47;;;23.63;;
21046;SDS011;10682;50.874;3.656;2023-05-10T06:36:35;75.47;;;23.20;;
21046;SDS011;10682;50.874;3.656;2023-05-10T06:39:02;67.50;;;23.03;;
21046;SDS011;10682;50.874;3.656;2023-05-10T06:41:29;69.93;;;23.47;;
21046;SDS011;10682;50.874;3.656;2023-05-10T06:44:05;58.27;;;22.23;;
21046;SDS011;10682;50.874;3.656;2023-05-10T06:46:32;60.03;;;21.80;;
21046;SDS011;10682;50.874;3.656;2023-05-10T06:48:59;66.27;;;21.50;;
21046;SDS011;10682;50.874;3.656;2023-05-10T06:51:26;64.10;;;21.50;;
21046;SDS011;10682;50.874;3.656;2023-05-10T06:53:53;56.70;;;21.37;;
21046;SDS011;10682;50.874;3.656;2023-05-10T06:56:20;60.53;;;21.47;;
21046;SDS011;10682;50.874;3.656;2023-05-10T06:59:28;67.63;;;20.17;;
21046;SDS011;10682;50.874;3.656;2023-05-10T07:01:55;49.53;;;20.03;;
21046;SDS011;10682;50.874;3.656;2023-05-10T07:04:22;52.47;;;20.27;;
21046;SDS011;10682;50.874;3.656;2023-05-10T07:06:49;54.83;;;20.03;;
21046;SDS011;10682;50.874;3.656;2023-05-10T07:09:17;56.13;;;20.43;;
21046;SDS011;10682;50.874;3.656;2023-05-10T07:11:44;57.90;;;20.90;;
21046;SDS011;10682;50.874;3.656;2023-05-10T07:14:11;50.23;;;21.50;;
21046;SDS011;10682;50.874;3.656;2023-05-10T07:16:38;51.23;;;19.93;;
21046;SDS011;10682;50.874;3.656;2023-05-10T07:19:05;46.53;;;19.30;;
21046;SDS011;10682;50.874;3.656;2023-05-10T07:21:32;48.37;;;19.23;;
21046;SDS011;10682;50.874;3.656;2023-05-10T07:23:59;52.67;;;19.10;;
21046;SDS011;10682;50.874;3.656;2023-05-10T07:26:27;48.40;;;17.67;;
21046;SDS011;10682;50.874;3.656;2023-05-10T07:28:54;45.40;;;18.43;;
21046;SDS011;10682;50.874;3.656;2023-05-10T07:31:21;51.00;;;19.13;;
21046;SDS011;10682;50.874;3.656;2023-05-10T07:33:49;51.03;;;19.53;;
21046;SDS011;10682;50.874;3.656;2023-05-10T07:36:15;48.17;;;17.70;;
21046;SDS011;10682;50.874;3.656;2023-05-10T07:38:42;48.30;;;17.33;;
21046;SDS011;10682;50.874;3.656;2023-05-10T07:41:11;45.50;;;17.27;;
21046;SDS011;10682;50.874;3.656;2023-05-10T07:43:38;42.70;;;17.50;;
21046;SDS011;10682;50.874;3.656;2023-05-10T07:46:06;41.87;;;16.27;;
21046;SDS011;10682;50.874;3.656;2023-05-10T07:48:33;46.37;;;16.37;;
21046;SDS011;10682;50.874;3.656;2023-05-10T07:51:00;38.23;;;16.43;;
21046;SDS011;10682;50.874;3.656;2023-05-10T07:53:28;32.60;;;15.63;;
21046;SDS011;10682;50.874;3.656;2023-05-10T07:55:57;38.30;;;14.30;;
21046;SDS011;10682;50.874;3.656;2023-05-10T07:58:24;39.13;;;15.57;;
21046;SDS011;10682;50.874;3.656;2023-05-10T08:00:51;39.40;;;14.40;;
21046;SDS011;10682;50.874;3.656;2023-05-10T08:03:18;36.67;;;14.80;;
21046;SDS011;10682;50.874;3.656;2023-05-10T08:05:46;32.70;;;13.23;;
21046;SDS011;10682;50.874;3.656;2023-05-10T08:08:13;31.77;;;12.93;;
21046;SDS011;10682;50.874;3.656;2023-05-10T08:10:40;31.13;;;12.57;;
21046;SDS011;10682;50.874;3.656;2023-05-10T08:13:07;35.47;;;12.17;;
21046;SDS011;10682;50.874;3.656;2023-05-10T08:15:34;33.10;;;12.90;;
21046;SDS011;10682;50.874;3.656;2023-05-10T08:18:01;37.10;;;14.20;;
21046;SDS011;10682;50.874;3.656;2023-05-10T08:20:28;32.80;;;13.03;;
21046;SDS011;10682;50.874;3.656;2023-05-10T08:22:56;32.70;;;12.93;;
21046;SDS011;10682;50.874;3.656;2023-05-10T08:25:22;24.83;;;13.47;;
21046;SDS011;10682;50.874;3.656;2023-05-10T08:27:49;28.40;;;13.33;;
21046;SDS011;10682;50.874;3.656;2023-05-10T08:30:16;33.23;;;12.67;;
21046;SDS011;10682;50.874;3.656;2023-05-10T08:32:43;29.57;;;14.03;;
21046;SDS011;10682;50.874;3.656;2023-05-10T08:35:11;27.77;;;13.07;;
21046;SDS011;10682;50.874;3.656;2023-05-10T08:37:37;29.57;;;13.77;;
21046;SDS011;10682;50.874;3.656;2023-05-10T08:40:05;31.07;;;13.70;;
21046;SDS011;10682;50.874;3.656;2023-05-10T08:42:34;31.87;;;13.93;;
21046;SDS011;10682;50.874;3.656;2023-05-10T08:45:04;33.80;;;14.30;;
21046;SDS011;10682;50.874;3.656;2023-05-10T08:47:34;29.20;;;13.87;;
21046;SDS011;10682;50.874;3.656;2023-05-10T08:50:04;28.47;;;13.97;;
21046;SDS011;10682;50.874;3.656;2023-05-10T08:52:32;30.57;;;13.73;;
21046;SDS011;10682;50.874;3.656;2023-05-10T08:55:05;28.17;;;13.57;;
21046;SDS011;10682;50.874;3.656;2023-05-10T08:57:32;33.80;;;14.30;;
21046;SDS011;10682;50.874;3.656;2023-05-10T09:00:00;30.37;;;13.80;;
21046;SDS011;10682;50.874;3.656;2023-05-10T09:02:28;26.27;;;12.67;;
21046;SDS011;10682;50.874;3.656;2023-05-10T09:04:56;26.77;;;12.33;;
21046;SDS011;10682;50.874;3.656;2023-05-10T09:07:23;29.30;;;12.67;;
21046;SDS011;10682;50.874;3.656;2023-05-10T09:09:50;25.77;;;12.73;;
21046;SDS011;10682;50.874;3.656;2023-05-10T09:12:18;32.60;;;12.70;;
21046;SDS011;10682;50.874;3.656;2023-05-10T09:14:45;26.60;;;13.63;;
21046;SDS011;10682;50.874;3.656;2023-05-10T09:17:12;30.50;;;13.97;;
21046;SDS011;10682;50.874;3.656;2023-05-10T09:19:40;29.23;;;13.50;;
21046;SDS011;10682;50.874;3.656;2023-05-10T09:22:07;26.83;;;13.83;;
21046;SDS011;10682;50.874;3.656;2023-05-10T09:24:34;29.23;;;12.63;;
21046;SDS011;10682;50.874;3.656;2023-05-10T09:27:03;29.40;;;14.60;;
21046;SDS011;10682;50.874;3.656;2023-05-10T09:29:48;24.13;;;13.23;;
21046;SDS011;10682;50.874;3.656;2023-05-10T09:32:19;31.60;;;13.53;;
21046;SDS011;10682;50.874;3.656;2023-05-10T09:34:46;31.13;;;13.73;;
21046;SDS011;10682;50.874;3.656;2023-05-10T09:37:16;30.53;;;13.60;;
21046;SDS011;10682;50.874;3.656;2023-05-10T09:39:43;34.73;;;13.47;;
21046;SDS011;10682;50.874;3.656;2023-05-10T09:42:10;28.43;;;13.43;;
21046;SDS011;10682;50.874;3.656;2023-05-10T09:44:37;30.53;;;13.50;;
21046;SDS011;10682;50.874;3.656;2023-05-10T09:47:04;25.33;;;12.00;;
21046;SDS011;10682;50.874;3.656;2023-05-10T09:49:31;27.57;;;12.20;;
21046;SDS011;10682;50.874;3.656;2023-05-10T09:52:08;26.10;;;12.50;;
21046;SDS011;10682;50.874;3.656;2023-05-10T09:54:35;28.47;;;12.17;;
21046;SDS011;10682;50.874;3.656;2023-05-10T09:57:02;29.30;;;12.97;;
21046;SDS011;10682;50.874;3.656;2023-05-10T09:59:29;26.67;;;12.10;;
21046;SDS011;10682;50.874;3.656;2023-05-10T10:01:59;26.83;;;12.50;;
21046;SDS011;10682;50.874;3.656;2023-05-10T10:04:27;23.90;;;12.77;;
21046;SDS011;10682;50.874;3.656;2023-05-10T10:09:30;26.23;;;12.90;;
21046;SDS011;10682;50.874;3.656;2023-05-10T10:11:58;23.53;;;12.20;;
21046;SDS011;10682;50.874;3.656;2023-05-10T10:14:26;24.50;;;11.35;;
21046;SDS011;10682;50.874;3.656;2023-05-10T10:16:54;27.20;;;12.83;;
21046;SDS011;10682;50.874;3.656;2023-05-10T10:19:34;22.17;;;12.23;;
21046;SDS011;10682;50.874;3.656;2023-05-10T10:22:02;25.73;;;13.13;;
21046;SDS011;10682;50.874;3.656;2023-05-10T10:24:29;26.63;;;13.35;;
21046;SDS011;10682;50.874;3.656;2023-05-10T10:26:59;21.90;;;12.47;;
21046;SDS011;10682;50.874;3.656;2023-05-10T10:29:56;24.87;;;12.53;;
21046;SDS011;10682;50.874;3.656;2023-05-10T10:32:42;23.13;;;12.50;;
21046;SDS011;10682;50.874;3.656;2023-05-10T10:35:54;21.70;;;11.45;;
21046;SDS011;10682;50.874;3.656;2023-05-10T10:38:24;30.47;;;11.33;;
21046;SDS011;10682;50.874;3.656;2023-05-10T10:41:26;22.38;;;11.77;;
21046;SDS011;10682;50.874;3.656;2023-05-10T11:03:05;29.08;;;16.27;;
21046;SDS011;10682;50.874;3.656;2023-05-10T11:05:40;32.90;;;16.50;;
21046;SDS011;10682;50.874;3.656;2023-05-10T11:10:50;27.83;;;15.02;;
21046;SDS011;10682;50.874;3.656;2023-05-10T11:16:17;33.15;;;16.17;;
21046;SDS011;10682;50.874;3.656;2023-05-10T11:19:01;26.15;;;15.15;;
21046;SDS011;10682;50.874;3.656;2023-05-10T11:21:31;25.73;;;14.18;;
21046;SDS011;10682;50.874;3.656;2023-05-10T11:23:59;28.60;;;13.60;;
21046;SDS011;10682;50.874;3.656;2023-05-10T11:26:33;26.23;;;13.90;;
21046;SDS011;10682;50.874;3.656;2023-05-10T11:29:01;26.45;;;14.60;;
21046;SDS011;10682;50.874;3.656;2023-05-10T11:31:31;21.10;;;13.30;;
21046;SDS011;10682;50.874;3.656;2023-05-10T11:33:58;26.75;;;14.02;;
21046;SDS011;10682;50.874;3.656;2023-05-10T11:36:28;24.85;;;12.90;;
21046;SDS011;10682;50.874;3.656;2023-05-10T11:38:59;26.58;;;13.73;;
21046;SDS011;10682;50.874;3.656;2023-05-10T11:41:27;24.00;;;13.88;;
21046;SDS011;10682;50.874;3.656;2023-05-10T11:43:56;23.98;;;13.82;;
21046;SDS011;10682;50.874;3.656;2023-05-10T11:46:24;20.98;;;14.05;;
21046;SDS011;10682;50.874;3.656;2023-05-10T11:48:58;25.05;;;14.30;;
21046;SDS011;10682;50.874;3.656;2023-05-10T11:51:33;25.67;;;13.82;;
21046;SDS011;10682;50.874;3.656;2023-05-10T11:54:05;26.52;;;14.98;;
21046;SDS011;10682;50.874;3.656;2023-05-10T11:56:39;21.90;;;14.20;;
21046;SDS011;10682;50.874;3.656;2023-05-10T11:59:06;23.63;;;13.15;;
21046;SDS011;10682;50.874;3.656;2023-05-10T12:01:34;28.48;;;14.30;;
21046;SDS011;10682;50.874;3.656;2023-05-10T12:04:02;29.88;;;15.07;;
21046;SDS011;10682;50.874;3.656;2023-05-10T12:06:30;29.40;;;14.10;;
21046;SDS011;10682;50.874;3.656;2023-05-10T12:09:02;23.98;;;14.25;;
21046;SDS011;10682;50.874;3.656;2023-05-10T12:11:36;24.92;;;13.88;;
21046;SDS011;10682;50.874;3.656;2023-05-10T12:14:09;26.65;;;13.48;;
21046;SDS011;10682;50.874;3.656;2023-05-10T12:16:37;24.13;;;13.40;;
21046;SDS011;10682;50.874;3.656;2023-05-10T12:19:04;22.85;;;13.02;;
21046;SDS011;10682;50.874;3.656;2023-05-10T12:21:32;23.65;;;12.60;;
21046;SDS011;10682;50.874;3.656;2023-05-10T12:24:00;22.13;;;13.32;;
21046;SDS011;10682;50.874;3.656;2023-05-10T12:26:30;28.60;;;14.05;;
21046;SDS011;10682;50.874;3.656;2023-05-10T12:29:12;22.33;;;12.77;;
21046;SDS011;10682;50.874;3.656;2023-05-10T12:31:53;24.58;;;13.25;;
21046;SDS011;10682;50.874;3.656;2023-05-10T12:34:46;25.38;;;12.98;;
21046;SDS011;10682;50.874;3.656;2023-05-10T12:37:09;21.27;;;12.50;;
21046;SDS011;10682;50.874;3.656;2023-05-10T12:39:43;25.40;;;13.02;;
21046;SDS011;10682;50.874;3.656;2023-05-10T12:42:12;20.17;;;12.27;;
21046;SDS011;10682;50.874;3.656;2023-05-10T12:44:39;29.85;;;13.02;;
21046;SDS011;10682;50.874;3.656;2023-05-10T12:47:06;25.73;;;13.52;;
21046;SDS011;10682;50.874;3.656;2023-05-10T12:49:33;24.58;;;13.35;;
21046;SDS011;10682;50.874;3.656;2023-05-10T12:52:00;23.73;;;13.02;;
21046;SDS011;10682;50.874;3.656;2023-05-10T12:54:27;23.83;;;13.60;;
21046;SDS011;10682;50.874;3.656;2023-05-10T12:56:55;24.80;;;13.48;;
21046;SDS011;10682;50.874;3.656;2023-05-10T12:59:22;27.20;;;15.95;;
21046;SDS011;10682;50.874;3.656;2023-05-10T13:01:49;23.23;;;14.32;;
21046;SDS011;10682;50.874;3.656;2023-05-10T13:04:16;25.48;;;14.73;;
21046;SDS011;10682;50.874;3.656;2023-05-10T13:06:43;27.70;;;15.57;;
21046;SDS011;10682;50.874;3.656;2023-05-10T13:09:10;23.48;;;14.98;;
21046;SDS011;10682;50.874;3.656;2023-05-10T13:11:37;31.40;;;15.98;;
21046;SDS011;10682;50.874;3.656;2023-05-10T13:14:04;32.83;;;17.00;;
21046;SDS011;10682;50.874;3.656;2023-05-10T13:16:31;32.55;;;17.05;;
21046;SDS011;10682;50.874;3.656;2023-05-10T13:18:59;38.72;;;18.58;;
21046;SDS011;10682;50.874;3.656;2023-05-10T13:21:26;34.65;;;17.83;;
21046;SDS011;10682;50.874;3.656;2023-05-10T13:23:53;37.17;;;17.20;;
21046;SDS011;10682;50.874;3.656;2023-05-10T13:26:20;34.10;;;19.00;;
21046;SDS011;10682;50.874;3.656;2023-05-10T13:28:47;30.63;;;17.52;;
21046;SDS011;10682;50.874;3.656;2023-05-10T13:31:15;33.92;;;17.50;;
21046;SDS011;10682;50.874;3.656;2023-05-10T13:33:42;28.35;;;17.60;;
21046;SDS011;10682;50.874;3.656;2023-05-10T13:36:09;26.65;;;16.65;;
21046;SDS011;10682;50.874;3.656;2023-05-10T13:38:36;27.90;;;16.97;;
21046;SDS011;10682;50.874;3.656;2023-05-10T13:41:03;34.85;;;17.48;;
21046;SDS011;10682;50.874;3.656;2023-05-10T13:43:30;37.22;;;17.10;;
21046;SDS011;10682;50.874;3.656;2023-05-10T13:45:57;29.30;;;16.17;;
21046;SDS011;10682;50.874;3.656;2023-05-10T13:48:24;31.35;;;15.55;;
21046;SDS011;10682;50.874;3.656;2023-05-10T13:50:51;31.40;;;15.20;;
21046;SDS011;10682;50.874;3.656;2023-05-10T13:53:18;30.05;;;15.15;;
21046;SDS011;10682;50.874;3.656;2023-05-10T13:55:45;33.22;;;15.88;;
21046;SDS011;10682;50.874;3.656;2023-05-10T13:58:13;26.77;;;14.68;;
21046;SDS011;10682;50.874;3.656;2023-05-10T14:00:40;23.20;;;12.60;;
21046;SDS011;10682;50.874;3.656;2023-05-10T14:03:07;25.40;;;12.35;;
21046;SDS011;10682;50.874;3.656;2023-05-10T14:05:37;23.85;;;11.90;;
21046;SDS011;10682;50.874;3.656;2023-05-10T14:08:04;20.85;;;11.45;;
21046;SDS011;10682;50.874;3.656;2023-05-10T14:10:31;26.75;;;12.95;;
21046;SDS011;10682;50.874;3.656;2023-05-10T14:12:58;21.02;;;11.25;;
21046;SDS011;10682;50.874;3.656;2023-05-10T14:15:25;22.17;;;9.82;;
21046;SDS011;10682;50.874;3.656;2023-05-10T14:17:52;18.88;;;9.80;;
21046;SDS011;10682;50.874;3.656;2023-05-10T14:20:19;20.65;;;10.05;;
21046;SDS011;10682;50.874;3.656;2023-05-10T14:22:46;20.45;;;10.18;;
21046;SDS011;10682;50.874;3.656;2023-05-10T14:25:13;23.90;;;10.55;;
21046;SDS011;10682;50.874;3.656;2023-05-10T14:27:41;18.38;;;9.90;;
21046;SDS011;10682;50.874;3.656;2023-05-10T14:30:08;20.83;;;9.50;;
21046;SDS011;10682;50.874;3.656;2023-05-10T14:32:36;16.05;;;4.80;;
21046;SDS011;10682;50.874;3.656;2023-05-10T14:35:03;14.20;;;3.65;;
21046;SDS011;10682;50.874;3.656;2023-05-10T14:37:32;11.07;;;3.30;;
21046;SDS011;10682;50.874;3.656;2023-05-10T14:39:59;11.68;;;3.40;;
21046;SDS011;10682;50.874;3.656;2023-05-10T14:42:26;9.45;;;2.72;;
21046;SDS011;10682;50.874;3.656;2023-05-10T14:44:54;12.65;;;3.13;;
21046;SDS011;10682;50.874;3.656;2023-05-10T14:47:21;16.25;;;2.70;;
21046;SDS011;10682;50.874;3.656;2023-05-10T14:49:48;10.73;;;2.80;;
21046;SDS011;10682;50.874;3.656;2023-05-10T14:52:15;10.20;;;2.85;;
21046;SDS011;10682;50.874;3.656;2023-05-10T14:54:42;12.43;;;3.00;;
21046;SDS011;10682;50.874;3.656;2023-05-10T14:57:09;11.88;;;2.97;;
21046;SDS011;10682;50.874;3.656;2023-05-10T14:59:36;10.82;;;2.75;;
21046;SDS011;10682;50.874;3.656;2023-05-10T15:02:04;11.77;;;3.00;;
21046;SDS011;10682;50.874;3.656;2023-05-10T15:04:32;13.88;;;3.08;;
21046;SDS011;10682;50.874;3.656;2023-05-10T15:06:59;12.20;;;2.95;;
21046;SDS011;10682;50.874;3.656;2023-05-10T15:09:26;8.77;;;2.70;;
21046;SDS011;10682;50.874;3.656;2023-05-10T15:11:54;10.75;;;3.08;;
21046;SDS011;10682;50.874;3.656;2023-05-10T15:14:22;12.95;;;3.85;;
21046;SDS011;10682;50.874;3.656;2023-05-10T15:16:49;13.90;;;3.08;;
21046;SDS011;10682;50.874;3.656;2023-05-10T15:19:16;18.63;;;3.05;;
21046;SDS011;10682;50.874;3.656;2023-05-10T15:21:43;13.00;;;3.08;;